createdAt,value
2022-10-11T00:00:22.317Z,1018.84
2022-10-11T00:01:22.461Z,1018.84
2022-10-11T00:02:22.311Z,1018.81
2022-10-11T00:03:22.283Z,1018.82
2022-10-11T00:04:22.268Z,1018.81
2022-10-11T00:05:22.262Z,1018.82
2022-10-11T00:06:22.260Z,1018.87
2022-10-11T00:07:22.359Z,1018.87
2022-10-11T00:08:22.231Z,1018.86
2022-10-11T00:09:22.200Z,1018.85
2022-10-11T00:10:22.188Z,1018.89
2022-10-11T00:11:22.183Z,1018.88
2022-10-11T00:12:22.161Z,1018.83
2022-10-11T00:13:22.504Z,1018.89
2022-10-11T00:14:22.152Z,1018.83
2022-10-11T00:15:22.111Z,1018.87
2022-10-11T00:16:22.124Z,1018.89
2022-10-11T00:17:22.091Z,1018.89
2022-10-11T00:18:22.091Z,1018.91
2022-10-11T00:19:22.115Z,1018.90
2022-10-11T00:20:22.053Z,1018.88
2022-10-11T00:21:22.046Z,1018.91
2022-10-11T00:22:22.045Z,1018.89
2022-10-11T00:23:22.010Z,1018.94
2022-10-11T00:24:22.016Z,1018.95
2022-10-11T00:25:22.005Z,1018.96
2022-10-11T00:26:21.973Z,1018.97
2022-10-11T00:27:21.967Z,1018.99
2022-10-11T00:28:21.989Z,1019.02
2022-10-11T00:29:21.938Z,1019.01
2022-10-11T00:30:21.936Z,1019.01
2022-10-11T00:31:22.014Z,1019.03
2022-10-11T00:32:21.915Z,1019.02
2022-10-11T00:33:21.877Z,1019.01
2022-10-11T00:34:21.864Z,1019.06
2022-10-11T00:35:21.861Z,1019.07
2022-10-11T00:36:21.850Z,1019.14
2022-10-11T00:37:21.926Z,1019.09
2022-10-11T00:38:21.807Z,1019.12
2022-10-11T00:39:21.810Z,1019.11
2022-10-11T00:40:21.787Z,1019.07
2022-10-11T00:41:21.781Z,1019.13
2022-10-11T00:42:21.771Z,1019.14
2022-10-11T00:43:21.849Z,1019.17
2022-10-11T00:44:22.411Z,1019.18
2022-10-11T00:45:21.718Z,1019.18
2022-10-11T00:46:21.708Z,1019.20
2022-10-11T00:47:21.703Z,1019.24
2022-10-11T00:48:21.679Z,1019.22
2022-10-11T00:49:21.703Z,1019.22
2022-10-11T00:50:21.674Z,1019.19
2022-10-11T00:51:21.641Z,1019.26
2022-10-11T00:52:21.628Z,1019.30
2022-10-11T00:53:21.624Z,1019.28
2022-10-11T00:54:21.615Z,1019.28
2022-10-11T00:55:21.710Z,1019.23
2022-10-11T00:56:21.592Z,1019.23
2022-10-11T00:57:21.552Z,1019.23
2022-10-11T00:58:21.551Z,1019.33
2022-10-11T00:59:21.545Z,1019.27
2022-10-11T01:00:21.522Z,1019.26
2022-10-11T01:01:21.641Z,1019.32
2022-10-11T01:02:21.493Z,1019.27
2022-10-11T01:03:21.482Z,1019.34
2022-10-11T01:04:21.484Z,1019.32
2022-10-11T01:05:30.188Z,1019.33
2022-10-11T01:06:23.244Z,1019.33
2022-10-11T01:07:21.440Z,1019.34
2022-10-11T01:08:22.207Z,1019.35
2022-10-11T01:09:21.416Z,1019.36
2022-10-11T01:10:21.385Z,1019.34
2022-10-11T01:11:21.383Z,1019.36
2022-10-11T01:12:21.524Z,1019.35
2022-10-11T01:13:21.358Z,1019.37
2022-10-11T01:14:21.350Z,1019.35
2022-10-11T01:15:21.316Z,1019.40
2022-10-11T01:16:21.640Z,1019.35
2022-10-11T01:17:21.287Z,1019.35
2022-10-11T01:18:21.307Z,1019.42
2022-10-11T01:19:21.280Z,1019.40
2022-10-11T01:20:21.258Z,1019.42
2022-10-11T01:21:21.251Z,1019.41
2022-10-11T01:22:21.242Z,1019.40
2022-10-11T01:23:21.207Z,1019.41
2022-10-11T01:24:21.329Z,1019.38
2022-10-11T01:25:21.181Z,1019.41
2022-10-11T01:26:21.176Z,1019.41
2022-10-11T01:27:21.171Z,1019.42
2022-10-11T01:28:21.237Z,1019.46
2022-10-11T01:29:21.142Z,1019.43
2022-10-11T01:30:21.264Z,1019.43
2022-10-11T01:31:21.100Z,1019.52
2022-10-11T01:32:21.103Z,1019.52
2022-10-11T01:33:21.076Z,1019.52
2022-10-11T01:34:21.070Z,1019.52
2022-10-11T01:35:21.239Z,1019.56
2022-10-11T01:36:21.141Z,1019.54
2022-10-11T01:37:21.035Z,1019.50
2022-10-11T01:38:21.536Z,1019.52
2022-10-11T01:39:20.991Z,1019.51
2022-10-11T01:40:20.982Z,1019.53
2022-10-11T01:41:21.458Z,1019.53
2022-10-11T01:42:20.996Z,1019.55
2022-10-11T01:43:21.492Z,1019.53
2022-10-11T01:44:20.944Z,1019.58
2022-10-11T01:45:20.913Z,1019.58
2022-10-11T01:46:20.903Z,1019.57
2022-10-11T01:47:20.897Z,1019.57
2022-10-11T01:48:20.984Z,1019.61
2022-10-11T01:49:20.867Z,1019.56
2022-10-11T01:50:20.858Z,1019.58
2022-10-11T01:51:20.825Z,1019.59
2022-10-11T01:52:20.890Z,1019.55
2022-10-11T01:53:20.796Z,1019.61
2022-10-11T01:54:20.925Z,1019.60
2022-10-11T01:55:20.790Z,1019.66
2022-10-11T01:56:20.819Z,1019.68
2022-10-11T01:57:20.836Z,1019.63
2022-10-11T01:58:20.735Z,1019.65
2022-10-11T01:59:20.732Z,1019.64
2022-10-11T02:00:20.837Z,1019.66
2022-10-11T02:01:21.028Z,1019.68
2022-10-11T02:02:20.700Z,1019.68
2022-10-11T02:03:20.666Z,1019.62
2022-10-11T02:04:20.681Z,1019.68
2022-10-11T02:05:20.638Z,1019.64
2022-10-11T02:06:20.758Z,1019.68
2022-10-11T02:07:21.141Z,1019.68
2022-10-11T02:08:20.603Z,1019.70
2022-10-11T02:09:20.592Z,1019.73
2022-10-11T02:10:20.584Z,1019.72
2022-10-11T02:11:20.551Z,1019.68
2022-10-11T02:12:20.660Z,1019.71
2022-10-11T02:13:20.544Z,1019.71
2022-10-11T02:14:20.533Z,1019.68
2022-10-11T02:15:20.499Z,1019.69
2022-10-11T02:16:20.504Z,1019.75
2022-10-11T02:17:20.471Z,1019.74
2022-10-11T02:18:20.571Z,1019.74
2022-10-11T02:19:20.456Z,1019.72
2022-10-11T02:20:20.433Z,1019.76
2022-10-11T02:21:20.426Z,1019.77
2022-10-11T02:22:20.424Z,1019.74
2022-10-11T02:23:20.390Z,1019.74
2022-10-11T02:24:20.425Z,1019.74
2022-10-11T02:25:20.362Z,1019.76
2022-10-11T02:26:20.352Z,1019.76
2022-10-11T02:27:20.347Z,1019.79
2022-10-11T02:28:20.543Z,1019.79
2022-10-11T02:29:20.318Z,1019.77
2022-10-11T02:30:20.428Z,1019.79
2022-10-11T02:31:20.274Z,1019.81
2022-10-11T02:32:20.287Z,1019.78
2022-10-11T02:33:20.254Z,1019.77
2022-10-11T02:34:20.244Z,1019.79
2022-10-11T02:35:20.239Z,1019.76
2022-10-11T02:36:20.246Z,1019.78
2022-10-11T02:37:20.209Z,1019.81
2022-10-11T02:38:20.207Z,1019.82
2022-10-11T02:39:20.166Z,1019.81
2022-10-11T02:40:20.178Z,1019.82
2022-10-11T02:41:20.144Z,1019.85
2022-10-11T02:42:20.247Z,1019.82
2022-10-11T02:43:20.131Z,1019.84
2022-10-11T02:44:20.121Z,1019.87
2022-10-11T02:45:20.090Z,1019.83
2022-10-11T02:46:20.078Z,1019.92
2022-10-11T02:47:20.073Z,1019.84
2022-10-11T02:48:20.078Z,1019.87
2022-10-11T02:49:20.051Z,1019.93
2022-10-11T02:50:20.041Z,1019.89
2022-10-11T02:51:20.011Z,1019.90
2022-10-11T02:52:20.012Z,1019.92
2022-10-11T02:53:19.980Z,1019.89
2022-10-11T02:54:20.082Z,1019.88
2022-10-11T02:55:19.977Z,1019.88
2022-10-11T02:56:19.944Z,1019.88
2022-10-11T02:57:19.935Z,1019.90
2022-10-11T02:58:19.932Z,1019.91
2022-10-11T02:59:19.900Z,1019.92
2022-10-11T03:00:19.921Z,1019.96
2022-10-11T03:01:19.910Z,1019.91
2022-10-11T03:02:19.876Z,1019.93
2022-10-11T03:03:19.842Z,1019.93
2022-10-11T03:04:19.846Z,1019.91
2022-10-11T03:05:19.815Z,1019.90
2022-10-11T03:06:19.940Z,1019.93
2022-10-11T03:07:19.805Z,1019.94
2022-10-11T03:08:19.774Z,1019.94
2022-10-11T03:09:19.776Z,1019.95
2022-10-11T03:10:19.776Z,1019.96
2022-10-11T03:11:19.733Z,1019.97
2022-10-11T03:12:19.769Z,1019.99
2022-10-11T03:13:19.709Z,1020.00
2022-10-11T03:14:19.694Z,1019.98
2022-10-11T03:15:19.772Z,1020.05
2022-10-11T03:16:19.680Z,1020.02
2022-10-11T03:17:35.509Z,1020.04
2022-10-11T03:18:20.666Z,1020.09
2022-10-11T03:19:19.674Z,1020.10
2022-10-11T03:20:19.615Z,1020.10
2022-10-11T03:21:19.612Z,1020.06
2022-10-11T03:22:19.600Z,1020.09
2022-10-11T03:23:19.567Z,1020.06
2022-10-11T03:24:19.611Z,1020.07
2022-10-11T03:25:19.537Z,1020.10
2022-10-11T03:26:19.540Z,1020.13
2022-10-11T03:27:19.530Z,1020.09
2022-10-11T03:28:19.576Z,1020.14
2022-10-11T03:29:19.504Z,1020.13
2022-10-11T03:30:19.531Z,1020.16
2022-10-11T03:31:19.460Z,1020.17
2022-10-11T03:32:19.447Z,1020.23
2022-10-11T03:33:19.452Z,1020.20
2022-10-11T03:34:19.433Z,1020.23
2022-10-11T03:35:19.411Z,1020.23
2022-10-11T03:36:19.523Z,1020.28
2022-10-11T03:37:19.379Z,1020.27
2022-10-11T03:38:19.362Z,1020.24
2022-10-11T03:39:19.374Z,1020.30
2022-10-11T03:40:19.338Z,1020.26
2022-10-11T03:41:19.344Z,1020.27
2022-10-11T03:42:19.433Z,1020.31
2022-10-11T03:43:19.309Z,1020.33
2022-10-11T03:44:19.296Z,1020.33
2022-10-11T03:45:19.272Z,1020.32
2022-10-11T03:46:19.252Z,1020.31
2022-10-11T03:47:19.265Z,1020.37
2022-10-11T03:48:19.357Z,1020.34
2022-10-11T03:49:19.214Z,1020.36
2022-10-11T03:50:19.203Z,1020.39
2022-10-11T03:51:19.207Z,1020.40
2022-10-11T03:52:19.174Z,1020.38
2022-10-11T03:53:19.177Z,1020.41
2022-10-11T03:54:19.178Z,1020.44
2022-10-11T03:55:19.135Z,1020.45
2022-10-11T03:56:19.136Z,1020.45
2022-10-11T03:57:19.106Z,1020.54
2022-10-11T03:58:19.085Z,1020.48
2022-10-11T03:59:19.109Z,1020.53
2022-10-11T04:00:19.165Z,1020.59
2022-10-11T04:01:19.096Z,1020.54
2022-10-11T04:02:19.050Z,1020.58
2022-10-11T04:03:19.026Z,1020.61
2022-10-11T04:04:19.006Z,1020.60
2022-10-11T04:05:19.018Z,1020.66
2022-10-11T04:06:19.110Z,1020.63
2022-10-11T04:07:18.974Z,1020.65
2022-10-11T04:08:18.971Z,1020.68
2022-10-11T04:09:18.950Z,1020.67
2022-10-11T04:10:18.928Z,1020.71
2022-10-11T04:11:18.941Z,1020.69
2022-10-11T04:12:18.928Z,1020.75
2022-10-11T04:13:18.910Z,1020.76
2022-10-11T04:14:18.891Z,1020.77
2022-10-11T04:15:18.860Z,1020.79
2022-10-11T04:16:18.858Z,1020.78
2022-10-11T04:17:18.831Z,1020.80
2022-10-11T04:18:18.840Z,1020.86
2022-10-11T04:19:18.823Z,1020.82
2022-10-11T04:20:18.804Z,1020.83
2022-10-11T04:21:18.781Z,1020.84
2022-10-11T04:22:18.762Z,1020.82
2022-10-11T04:23:18.773Z,1020.83
2022-10-11T04:24:18.862Z,1020.88
2022-10-11T04:25:18.745Z,1020.85
2022-10-11T04:26:18.725Z,1020.88
2022-10-11T04:27:18.700Z,1020.88
2022-10-11T04:28:18.748Z,1020.93
2022-10-11T04:29:18.681Z,1020.93
2022-10-11T04:30:18.685Z,1020.91
2022-10-11T04:31:18.666Z,1020.92
2022-10-11T04:32:18.624Z,1020.90
2022-10-11T04:33:18.636Z,1020.91
2022-10-11T04:34:18.618Z,1020.90
2022-10-11T04:35:18.595Z,1020.96
2022-10-11T04:36:18.617Z,1020.94
2022-10-11T04:37:18.564Z,1020.93
2022-10-11T04:38:18.546Z,1020.93
2022-10-11T04:39:18.552Z,1020.92
2022-10-11T04:40:18.515Z,1020.93
2022-10-11T04:41:18.520Z,1020.93
2022-10-11T04:42:18.619Z,1020.95
2022-10-11T04:43:18.509Z,1020.96
2022-10-11T04:44:18.480Z,1020.94
2022-10-11T04:45:18.453Z,1020.95
2022-10-11T04:46:18.437Z,1020.95
2022-10-11T04:47:18.441Z,1020.95
2022-10-11T04:48:18.429Z,1020.93
2022-10-11T04:49:18.412Z,1020.97
2022-10-11T04:50:18.392Z,1020.99
2022-10-11T04:51:18.377Z,1021.00
2022-10-11T04:52:22.113Z,1021.02
2022-10-11T04:53:19.383Z,1021.08
2022-10-11T04:54:18.343Z,1021.04
2022-10-11T04:55:18.321Z,1021.03
2022-10-11T04:56:18.313Z,1021.04
2022-10-11T04:57:18.290Z,1021.04
2022-10-11T04:58:18.296Z,1021.10
2022-10-11T04:59:18.403Z,1021.14
2022-10-11T05:00:18.250Z,1021.12
2022-10-11T05:01:18.257Z,1021.18
2022-10-11T05:02:18.332Z,1021.18
2022-10-11T05:03:18.237Z,1021.15
2022-10-11T05:04:18.223Z,1021.19
2022-10-11T05:05:18.261Z,1021.22
2022-10-11T05:06:18.169Z,1021.15
2022-10-11T05:07:18.175Z,1021.18
2022-10-11T05:08:18.156Z,1021.15
2022-10-11T05:09:18.133Z,1021.19
2022-10-11T05:10:18.112Z,1021.22
2022-10-11T05:11:18.237Z,1021.20
2022-10-11T05:12:18.084Z,1021.21
2022-10-11T05:13:18.099Z,1021.18
2022-10-11T05:14:18.078Z,1021.17
2022-10-11T05:15:18.053Z,1021.18
2022-10-11T05:16:18.327Z,1021.19
2022-10-11T05:17:18.056Z,1021.18
2022-10-11T05:18:18.004Z,1021.19
2022-10-11T05:19:18.009Z,1021.25
2022-10-11T05:20:17.983Z,1021.29
2022-10-11T05:21:17.995Z,1021.29
2022-10-11T05:22:17.967Z,1021.27
2022-10-11T05:23:17.966Z,1021.33
2022-10-11T05:24:17.927Z,1021.35
2022-10-11T05:25:17.940Z,1021.34
2022-10-11T05:26:17.914Z,1021.32
2022-10-11T05:27:17.890Z,1021.35
2022-10-11T05:28:17.948Z,1021.34
2022-10-11T05:29:17.976Z,1021.36
2022-10-11T05:30:17.847Z,1021.35
2022-10-11T05:31:17.851Z,1021.35
2022-10-11T05:32:17.817Z,1021.34
2022-10-11T05:33:17.830Z,1021.38
2022-10-11T05:34:17.802Z,1021.40
2022-10-11T05:35:17.896Z,1021.38
2022-10-11T05:36:17.772Z,1021.40
2022-10-11T05:37:17.758Z,1021.48
2022-10-11T05:38:17.739Z,1021.46
2022-10-11T05:39:17.743Z,1021.48
2022-10-11T05:40:17.710Z,1021.45
2022-10-11T05:41:17.827Z,1021.47
2022-10-11T05:42:17.701Z,1021.49
2022-10-11T05:43:17.680Z,1021.53
2022-10-11T05:44:17.675Z,1021.52
2022-10-11T05:45:17.650Z,1021.52
2022-10-11T05:46:17.631Z,1021.53
2022-10-11T05:47:17.869Z,1021.52
2022-10-11T05:48:17.622Z,1021.53
2022-10-11T05:49:17.616Z,1021.58
2022-10-11T05:50:20.796Z,1021.61
2022-10-11T05:51:18.577Z,1021.69
2022-10-11T05:52:17.575Z,1021.67
2022-10-11T05:53:17.693Z,1021.66
2022-10-11T05:54:17.524Z,1021.63
2022-10-11T05:55:17.527Z,1021.66
2022-10-11T05:56:17.515Z,1021.64
2022-10-11T05:57:17.493Z,1021.65
2022-10-11T05:58:17.478Z,1021.64
2022-10-11T05:59:17.509Z,1021.65
2022-10-11T06:00:17.444Z,1021.68
2022-10-11T06:01:17.535Z,1021.64
2022-10-11T06:02:17.437Z,1021.63
2022-10-11T06:03:17.414Z,1021.64
2022-10-11T06:04:17.409Z,1021.65
2022-10-11T06:05:17.495Z,1021.64
2022-10-11T06:06:17.366Z,1021.64
2022-10-11T06:07:17.378Z,1021.69
2022-10-11T06:08:17.344Z,1021.68
2022-10-11T06:09:17.349Z,1021.66
2022-10-11T06:10:17.333Z,1021.70
2022-10-11T06:11:17.416Z,1021.66
2022-10-11T06:12:17.288Z,1021.69
2022-10-11T06:13:17.298Z,1021.71
2022-10-11T06:14:17.279Z,1021.65
2022-10-11T06:15:17.248Z,1021.69
2022-10-11T06:16:17.251Z,1021.67
2022-10-11T06:17:17.248Z,1021.71
2022-10-11T06:18:17.208Z,1021.76
2022-10-11T06:19:17.214Z,1021.78
2022-10-11T06:20:17.180Z,1021.80
2022-10-11T06:21:17.192Z,1021.83
2022-10-11T06:22:17.173Z,1021.81
2022-10-11T06:23:17.260Z,1021.84
2022-10-11T06:24:17.156Z,1021.81
2022-10-11T06:25:17.121Z,1021.82
2022-10-11T06:26:17.101Z,1021.84
2022-10-11T06:27:17.113Z,1021.84
2022-10-11T06:28:17.167Z,1021.79
2022-10-11T06:29:17.153Z,1021.84
2022-10-11T06:30:17.051Z,1021.82
2022-10-11T06:31:17.056Z,1021.83
2022-10-11T06:32:17.021Z,1021.90
2022-10-11T06:33:17.034Z,1021.87
2022-10-11T06:34:17.015Z,1021.89
2022-10-11T06:35:17.013Z,1021.92
2022-10-11T06:36:16.987Z,1021.97
2022-10-11T06:37:16.963Z,1021.95
2022-10-11T06:38:16.947Z,1021.97
2022-10-11T06:39:16.956Z,1021.96
2022-10-11T06:40:16.928Z,1021.93
2022-10-11T06:41:17.056Z,1022.00
2022-10-11T06:42:16.915Z,1022.01
2022-10-11T06:43:16.885Z,1021.97
2022-10-11T06:44:16.884Z,1022.02
2022-10-11T06:45:16.870Z,1022.02
2022-10-11T06:46:16.841Z,1022.06
2022-10-11T06:47:16.958Z,1022.09
2022-10-11T06:48:16.837Z,1022.07
2022-10-11T06:49:22.186Z,1022.07
2022-10-11T06:50:29.918Z,1022.14
2022-10-11T06:51:17.796Z,1022.08
2022-10-11T06:52:16.771Z,1022.09
2022-10-11T06:53:16.873Z,1022.11
2022-10-11T06:54:16.728Z,1022.10
2022-10-11T06:55:16.750Z,1022.05
2022-10-11T06:56:16.698Z,1022.04
2022-10-11T06:57:16.715Z,1022.12
2022-10-11T06:58:16.693Z,1022.11
2022-10-11T06:59:16.777Z,1022.10
2022-10-11T07:00:16.650Z,1022.12
2022-10-11T07:01:16.734Z,1022.18
2022-10-11T07:02:16.634Z,1022.19
2022-10-11T07:03:16.610Z,1022.23
2022-10-11T07:04:16.604Z,1022.19
2022-10-11T07:05:16.610Z,1022.22
2022-10-11T07:06:16.570Z,1022.20
2022-10-11T07:07:16.573Z,1022.20
2022-10-11T07:08:16.542Z,1022.19
2022-10-11T07:09:16.555Z,1022.18
2022-10-11T07:10:16.537Z,1022.18
2022-10-11T07:11:16.532Z,1022.19
2022-10-11T07:12:16.508Z,1022.21
2022-10-11T07:13:17.499Z,1022.26
2022-10-11T07:14:16.465Z,1022.25
2022-10-11T07:15:16.479Z,1022.24
2022-10-11T07:16:16.446Z,1022.26
2022-10-11T07:17:16.537Z,1022.30
2022-10-11T07:18:16.406Z,1022.33
2022-10-11T07:19:16.415Z,1022.34
2022-10-11T07:20:16.411Z,1022.31
2022-10-11T07:21:16.389Z,1022.35
2022-10-11T07:22:16.368Z,1022.34
2022-10-11T07:23:16.379Z,1022.36
2022-10-11T07:24:16.336Z,1022.38
2022-10-11T07:25:16.315Z,1022.39
2022-10-11T07:26:16.295Z,1022.33
2022-10-11T07:27:16.307Z,1022.36
2022-10-11T07:28:16.295Z,1022.35
2022-10-11T07:29:16.300Z,1022.39
2022-10-11T07:30:16.259Z,1022.37
2022-10-11T07:31:16.236Z,1022.36
2022-10-11T07:32:16.216Z,1022.35
2022-10-11T07:33:16.241Z,1022.40
2022-10-11T07:34:16.204Z,1022.49
2022-10-11T07:35:16.296Z,1022.49
2022-10-11T07:36:16.173Z,1022.46
2022-10-11T07:37:16.155Z,1022.51
2022-10-11T07:38:16.139Z,1022.49
2022-10-11T07:39:16.143Z,1022.46
2022-10-11T07:40:16.110Z,1022.46
2022-10-11T07:41:16.140Z,1022.47
2022-10-11T07:42:16.096Z,1022.49
2022-10-11T07:43:16.071Z,1022.48
2022-10-11T07:44:16.072Z,1022.47
2022-10-11T07:45:16.061Z,1022.52
2022-10-11T07:46:16.074Z,1022.49
2022-10-11T07:47:16.146Z,1022.48
2022-10-11T07:48:16.010Z,1022.53
2022-10-11T07:49:16.004Z,1022.55
2022-10-11T07:50:15.995Z,1022.54
2022-10-11T07:51:15.962Z,1022.56
2022-10-11T07:52:15.976Z,1022.53
2022-10-11T07:53:16.062Z,1022.54
2022-10-11T07:54:15.923Z,1022.56
2022-10-11T07:55:15.935Z,1022.56
2022-10-11T07:56:15.902Z,1022.58
2022-10-11T07:57:15.896Z,1022.55
2022-10-11T07:58:15.897Z,1022.60
2022-10-11T07:59:15.884Z,1022.59
2022-10-11T08:00:15.858Z,1022.59
2022-10-11T08:01:15.855Z,1022.59
2022-10-11T08:02:15.817Z,1022.56
2022-10-11T08:03:15.831Z,1022.57
2022-10-11T08:04:15.817Z,1022.57
2022-10-11T08:05:15.833Z,1022.61
2022-10-11T08:06:15.765Z,1022.55
2022-10-11T08:07:15.762Z,1022.62
2022-10-11T08:08:15.739Z,1022.61
2022-10-11T08:09:15.731Z,1022.64
2022-10-11T08:10:15.730Z,1022.57
2022-10-11T08:11:15.808Z,1022.53
2022-10-11T08:12:15.701Z,1022.56
2022-10-11T08:13:15.667Z,1022.57
2022-10-11T08:14:15.658Z,1022.58
2022-10-11T08:15:15.653Z,1022.62
2022-10-11T08:16:15.628Z,1022.59
2022-10-11T08:17:15.650Z,1022.55
2022-10-11T08:18:15.613Z,1022.62
2022-10-11T08:19:15.580Z,1022.59
2022-10-11T08:20:15.578Z,1022.60
2022-10-11T08:21:15.577Z,1022.63
2022-10-11T08:22:15.561Z,1022.62
2022-10-11T08:23:15.661Z,1022.60
2022-10-11T08:24:15.545Z,1022.61
2022-10-11T08:25:15.504Z,1022.63
2022-10-11T08:26:15.503Z,1022.58
2022-10-11T08:27:15.485Z,1022.65
2022-10-11T08:28:15.541Z,1022.60
2022-10-11T08:29:15.595Z,1022.55
2022-10-11T08:30:15.454Z,1022.56
2022-10-11T08:31:15.446Z,1022.55
2022-10-11T08:32:15.426Z,1022.58
2022-10-11T08:33:15.393Z,1022.61
2022-10-11T08:34:15.390Z,1022.65
2022-10-11T08:35:15.500Z,1022.62
2022-10-11T08:36:15.392Z,1022.63
2022-10-11T08:37:15.345Z,1022.66
2022-10-11T08:38:15.335Z,1022.68
2022-10-11T08:39:15.488Z,1022.67
2022-10-11T08:40:15.307Z,1022.70
2022-10-11T08:41:15.420Z,1022.68
2022-10-11T08:42:15.297Z,1022.73
2022-10-11T08:43:15.257Z,1022.67
2022-10-11T08:44:15.271Z,1022.65
2022-10-11T08:45:15.237Z,1022.70
2022-10-11T08:46:15.227Z,1022.69
2022-10-11T08:47:15.252Z,1022.73
2022-10-11T08:48:15.197Z,1022.68
2022-10-11T08:49:15.200Z,1022.70
2022-10-11T08:50:15.182Z,1022.72
2022-10-11T08:51:15.152Z,1022.70
2022-10-11T08:52:15.161Z,1022.71
2022-10-11T08:53:15.262Z,1022.71
2022-10-11T08:54:15.119Z,1022.70
2022-10-11T08:55:15.112Z,1022.73
2022-10-11T08:56:15.089Z,1022.73
2022-10-11T08:57:15.093Z,1022.75
2022-10-11T08:58:15.084Z,1022.72
2022-10-11T08:59:15.182Z,1022.77
2022-10-11T09:00:15.054Z,1022.75
2022-10-11T09:01:15.070Z,1022.78
2022-10-11T09:02:15.022Z,1022.76
2022-10-11T09:03:15.008Z,1022.81
2022-10-11T09:04:14.982Z,1022.75
2022-10-11T09:05:15.315Z,1022.77
2022-10-11T09:06:14.965Z,1022.79
2022-10-11T09:07:14.933Z,1022.87
2022-10-11T09:08:14.923Z,1022.84
2022-10-11T09:09:14.919Z,1022.83
2022-10-11T09:10:14.911Z,1022.88
2022-10-11T09:11:14.905Z,1022.92
2022-10-11T09:12:14.890Z,1022.87
2022-10-11T09:13:14.845Z,1022.86
2022-10-11T09:14:14.836Z,1022.83
2022-10-11T09:15:14.850Z,1022.85
2022-10-11T09:16:14.806Z,1022.86
2022-10-11T09:17:14.931Z,1022.91
2022-10-11T09:18:14.802Z,1022.84
2022-10-11T09:19:14.778Z,1022.83
2022-10-11T09:20:14.772Z,1022.88
2022-10-11T09:21:14.741Z,1022.86
2022-10-11T09:22:14.792Z,1022.87
2022-10-11T09:23:14.992Z,1022.89
2022-10-11T09:24:14.723Z,1022.86
2022-10-11T09:25:14.697Z,1022.87
2022-10-11T09:26:14.680Z,1022.90
2022-10-11T09:27:14.677Z,1022.92
2022-10-11T09:28:14.729Z,1022.90
2022-10-11T09:29:14.673Z,1022.92
2022-10-11T09:30:14.641Z,1022.94
2022-10-11T09:31:14.612Z,1022.94
2022-10-11T09:32:14.613Z,1022.91
2022-10-11T09:33:14.581Z,1022.88
2022-10-11T09:34:14.572Z,1022.90
2022-10-11T09:35:14.678Z,1022.88
2022-10-11T09:36:14.543Z,1022.85
2022-10-11T09:37:14.546Z,1022.92
2022-10-11T09:38:14.527Z,1022.88
2022-10-11T09:39:14.494Z,1022.85
2022-10-11T09:40:14.495Z,1022.87
2022-10-11T09:41:14.609Z,1022.83
2022-10-11T09:42:14.477Z,1022.86
2022-10-11T09:43:14.447Z,1022.85
2022-10-11T09:44:14.458Z,1022.86
2022-10-11T09:45:14.415Z,1022.93
2022-10-11T09:46:14.406Z,1022.87
2022-10-11T09:47:14.430Z,1022.89
2022-10-11T09:48:14.386Z,1022.86
2022-10-11T09:49:14.382Z,1022.88
2022-10-11T09:50:14.372Z,1022.86
2022-10-11T09:51:14.338Z,1022.87
2022-10-11T09:52:14.341Z,1022.91
2022-10-11T09:53:14.428Z,1022.92
2022-10-11T09:54:14.298Z,1022.87
2022-10-11T09:55:18.919Z,1022.95
2022-10-11T09:56:15.270Z,1022.96
2022-10-11T09:57:14.283Z,1022.88
2022-10-11T09:58:14.262Z,1022.98
2022-10-11T09:59:14.261Z,1022.92
2022-10-11T10:00:14.243Z,1022.91
2022-10-11T10:01:14.211Z,1022.90
2022-10-11T10:02:14.302Z,1022.96
2022-10-11T10:03:14.193Z,1022.95
2022-10-11T10:04:14.165Z,1022.95
2022-10-11T10:05:14.289Z,1022.93
2022-10-11T10:06:14.155Z,1022.94
2022-10-11T10:07:14.136Z,1022.92
2022-10-11T10:08:14.128Z,1022.93
2022-10-11T10:09:14.094Z,1022.96
2022-10-11T10:10:14.085Z,1022.93
2022-10-11T10:11:14.118Z,1022.95
2022-10-11T10:12:14.079Z,1022.93
2022-10-11T10:13:14.045Z,1022.96
2022-10-11T10:14:14.033Z,1022.92
2022-10-11T10:15:14.029Z,1022.96
2022-10-11T10:16:14.006Z,1022.95
2022-10-11T10:17:14.061Z,1022.97
2022-10-11T10:18:13.998Z,1022.99
2022-10-11T10:19:13.958Z,1022.94
2022-10-11T10:20:13.968Z,1022.94
2022-10-11T10:21:13.939Z,1022.96
2022-10-11T10:22:13.935Z,1022.95
2022-10-11T10:23:14.051Z,1022.92
2022-10-11T10:24:13.898Z,1022.95
2022-10-11T10:25:13.893Z,1023.00
2022-10-11T10:26:13.900Z,1022.98
2022-10-11T10:27:13.849Z,1022.96
2022-10-11T10:28:13.912Z,1022.93
2022-10-11T10:29:13.952Z,1022.99
2022-10-11T10:30:13.835Z,1022.99
2022-10-11T10:31:13.800Z,1022.94
2022-10-11T10:32:15.144Z,1022.91
2022-10-11T10:33:13.775Z,1022.92
2022-10-11T10:34:13.762Z,1022.93
2022-10-11T10:35:13.876Z,1022.92
2022-10-11T10:36:13.732Z,1022.98
2022-10-11T10:37:13.726Z,1022.96
2022-10-11T10:38:13.719Z,1022.92
2022-10-11T10:39:13.691Z,1022.94
2022-10-11T10:40:13.697Z,1022.96
2022-10-11T10:41:13.694Z,1022.95
2022-10-11T10:42:13.665Z,1022.93
2022-10-11T10:43:13.649Z,1022.94
2022-10-11T10:44:13.639Z,1022.90
2022-10-11T10:45:16.277Z,1022.89
2022-10-11T10:46:14.615Z,1022.85
2022-10-11T10:47:13.591Z,1022.90
2022-10-11T10:48:13.567Z,1022.83
2022-10-11T10:49:52.376Z,1022.83
2022-10-11T10:50:14.630Z,1022.89
2022-10-11T10:51:13.527Z,1022.88
2022-10-11T10:52:13.671Z,1022.89
2022-10-11T10:53:13.497Z,1022.92
2022-10-11T10:54:13.488Z,1022.85
2022-10-11T10:55:13.481Z,1022.89
2022-10-11T10:56:13.461Z,1022.86
2022-10-11T10:57:13.454Z,1022.91
2022-10-11T10:58:18.498Z,1022.85
2022-10-11T10:59:14.423Z,1022.88
2022-10-11T11:00:13.421Z,1022.84
2022-10-11T11:01:13.545Z,1022.86
2022-10-11T11:02:38.591Z,1022.87
2022-10-11T11:03:14.400Z,1022.84
2022-10-11T11:04:13.352Z,1022.78
2022-10-11T11:05:13.353Z,1022.81
2022-10-11T11:06:13.338Z,1022.76
2022-10-11T11:07:13.303Z,1022.79
2022-10-11T11:08:13.315Z,1022.83
2022-10-11T11:09:13.394Z,1022.85
2022-10-11T11:10:13.272Z,1022.86
2022-10-11T11:11:13.267Z,1022.87
2022-10-11T11:12:13.255Z,1022.85
2022-10-11T11:13:13.238Z,1022.86
2022-10-11T11:14:13.238Z,1022.86
2022-10-11T11:15:13.227Z,1022.82
2022-10-11T11:16:13.241Z,1022.85
2022-10-11T11:17:13.180Z,1022.81
2022-10-11T11:18:13.180Z,1022.82
2022-10-11T11:19:13.137Z,1022.81
2022-10-11T11:20:13.158Z,1022.79
2022-10-11T11:21:13.229Z,1022.84
2022-10-11T11:22:13.111Z,1022.77
2022-10-11T11:23:13.101Z,1022.81
2022-10-11T11:24:13.083Z,1022.81
2022-10-11T11:25:13.073Z,1022.78
2022-10-11T11:26:13.063Z,1022.79
2022-10-11T11:27:13.059Z,1022.76
2022-10-11T11:28:13.091Z,1022.74
2022-10-11T11:29:13.001Z,1022.74
2022-10-11T11:30:13.061Z,1022.73
2022-10-11T11:31:12.985Z,1022.71
2022-10-11T11:32:12.993Z,1022.72
2022-10-11T11:33:12.972Z,1022.69
2022-10-11T11:34:12.942Z,1022.72
2022-10-11T11:35:13.011Z,1022.71
2022-10-11T11:36:12.912Z,1022.71
2022-10-11T11:37:12.911Z,1022.70
2022-10-11T11:38:12.907Z,1022.70
2022-10-11T11:39:12.893Z,1022.68
2022-10-11T11:40:12.979Z,1022.68
2022-10-11T11:41:12.835Z,1022.73
2022-10-11T11:42:12.835Z,1022.69
2022-10-11T11:43:12.829Z,1022.64
2022-10-11T11:44:12.807Z,1022.66
2022-10-11T11:45:12.820Z,1022.67
2022-10-11T11:46:12.791Z,1022.65
2022-10-11T11:47:12.757Z,1022.68
2022-10-11T11:48:12.747Z,1022.63
2022-10-11T11:49:13.137Z,1022.66
2022-10-11T11:50:12.774Z,1022.62
2022-10-11T11:51:12.817Z,1022.60
2022-10-11T11:52:12.720Z,1022.58
2022-10-11T11:53:12.680Z,1022.64
2022-10-11T11:54:12.670Z,1022.58
2022-10-11T11:55:12.663Z,1022.60
2022-10-11T11:56:12.640Z,1022.63
2022-10-11T11:57:12.744Z,1022.57
2022-10-11T11:58:12.633Z,1022.54
2022-10-11T11:59:12.592Z,1022.53
2022-10-11T12:00:12.596Z,1022.54
2022-10-11T12:01:12.571Z,1022.57
2022-10-11T12:02:12.632Z,1022.56
2022-10-11T12:03:12.586Z,1022.57
2022-10-11T12:04:12.536Z,1022.55
2022-10-11T12:05:12.541Z,1022.54